createdAt,value
2022-10-13T00:00:58.387Z,4.37
2022-10-13T00:03:25.522Z,6.77
2022-10-13T00:05:52.917Z,3.60
2022-10-13T00:08:22.066Z,3.93
2022-10-13T00:10:51.112Z,5.47
2022-10-13T00:13:19.291Z,4.10
2022-10-13T00:15:47.485Z,4.67
2022-10-13T00:18:15.745Z,7.60
2022-10-13T00:20:49.231Z,7.40
2022-10-13T00:23:17.178Z,4.43
2022-10-13T00:25:46.787Z,4.80
2022-10-13T00:28:15.698Z,7.30
2022-10-13T00:30:43.413Z,4.60
2022-10-13T00:33:11.887Z,5.10
2022-10-13T00:35:43.602Z,3.23
2022-10-13T00:38:11.560Z,3.23
2022-10-13T00:41:05.573Z,4.63
2022-10-13T00:43:58.908Z,10.00
2022-10-13T00:46:31.654Z,4.17
2022-10-13T00:49:02.946Z,3.93
2022-10-13T00:51:33.672Z,4.70
2022-10-13T00:54:03.576Z,3.90
2022-10-13T00:56:31.459Z,3.97
2022-10-13T00:59:00.977Z,3.33
2022-10-13T01:01:28.368Z,4.50
2022-10-13T01:03:55.468Z,6.23
2022-10-13T01:06:23.933Z,8.97
2022-10-13T01:08:51.930Z,7.37
2022-10-13T01:11:28.246Z,5.63
2022-10-13T01:14:01.372Z,3.60
2022-10-13T01:17:00.823Z,2.60
2022-10-13T01:19:46.446Z,4.90
2022-10-13T01:22:42.707Z,2.90
2022-10-13T01:25:28.193Z,4.80
2022-10-13T01:28:12.519Z,3.20
2022-10-13T01:30:46.636Z,3.40
2022-10-13T01:33:24.259Z,3.70
2022-10-13T01:35:58.990Z,3.80
2022-10-13T01:38:33.113Z,3.67
2022-10-13T01:41:23.543Z,3.23
2022-10-13T01:44:13.179Z,3.17
2022-10-13T01:46:41.691Z,5.63
2022-10-13T01:49:14.801Z,4.03
2022-10-13T01:51:43.454Z,3.33
2022-10-13T01:54:10.742Z,5.27
2022-10-13T01:56:37.829Z,5.57
2022-10-13T01:59:13.165Z,3.50
2022-10-13T02:01:40.492Z,6.00
2022-10-13T02:04:12.768Z,5.00
2022-10-13T02:06:54.337Z,4.90
2022-10-13T02:09:32.013Z,4.20
2022-10-13T02:12:06.063Z,3.20
2022-10-13T02:14:36.417Z,3.87
2022-10-13T02:17:05.530Z,5.53
2022-10-13T02:19:38.548Z,10.40
2022-10-13T02:22:08.311Z,4.67
2022-10-13T02:24:35.943Z,9.50
2022-10-13T02:27:05.529Z,3.13
2022-10-13T02:29:32.863Z,4.40
2022-10-13T02:32:00.305Z,4.50
2022-10-13T02:34:27.372Z,5.60
2022-10-13T02:36:54.924Z,7.03
2022-10-13T02:39:22.011Z,6.80
2022-10-13T02:41:49.241Z,5.90
2022-10-13T02:44:16.384Z,3.40
2022-10-13T02:46:43.502Z,3.40
2022-10-13T02:49:11.029Z,3.13
2022-10-13T02:51:40.323Z,3.93
2022-10-13T02:54:07.742Z,3.03
2022-10-13T02:56:34.949Z,3.30
2022-10-13T02:59:02.083Z,3.40
2022-10-13T03:01:29.284Z,2.80
2022-10-13T03:03:56.384Z,4.10
2022-10-13T03:06:23.589Z,3.10
2022-10-13T03:08:50.859Z,4.27
2022-10-13T03:11:18.036Z,4.53
2022-10-13T03:13:45.091Z,3.50
2022-10-13T03:16:12.174Z,3.33
2022-10-13T03:18:39.285Z,3.40
2022-10-13T03:21:07.199Z,4.13
2022-10-13T03:23:34.390Z,4.50
2022-10-13T03:26:02.317Z,3.53
2022-10-13T03:28:29.600Z,6.50
2022-10-13T03:31:08.237Z,7.20
2022-10-13T03:33:35.516Z,5.30
2022-10-13T03:36:05.676Z,4.37
2022-10-13T03:38:34.446Z,4.10
2022-10-13T03:41:09.419Z,11.33
2022-10-13T03:43:36.706Z,7.37
2022-10-13T03:46:06.151Z,3.33
2022-10-13T03:48:35.511Z,5.90
2022-10-13T03:51:11.225Z,3.40
2022-10-13T03:53:38.912Z,3.23
2022-10-13T03:56:06.744Z,3.50
2022-10-13T03:58:35.244Z,5.03
2022-10-13T04:01:06.045Z,2.97
2022-10-13T04:03:34.213Z,3.37
2022-10-13T04:06:02.800Z,4.97
2022-10-13T04:08:31.576Z,9.30
2022-10-13T04:11:10.819Z,5.70
2022-10-13T04:13:37.888Z,3.50
2022-10-13T04:16:12.163Z,9.47
2022-10-13T04:18:44.348Z,4.53
2022-10-13T04:21:14.055Z,3.97
2022-10-13T04:23:41.349Z,3.50
2022-10-13T04:26:14.633Z,6.20
2022-10-13T04:28:41.844Z,9.50
2022-10-13T04:31:08.950Z,9.67
2022-10-13T04:33:36.442Z,11.47
2022-10-13T04:36:11.891Z,4.20
2022-10-13T04:38:39.381Z,3.87
2022-10-13T04:41:08.208Z,9.60
2022-10-13T04:43:36.068Z,5.60
2022-10-13T04:46:13.301Z,6.43
2022-10-13T04:48:40.878Z,7.20
2022-10-13T04:51:10.883Z,4.03
2022-10-13T04:53:38.527Z,7.20
2022-10-13T04:56:11.434Z,3.80
2022-10-13T04:58:39.775Z,9.53
2022-10-13T05:01:08.421Z,4.93
2022-10-13T05:03:35.558Z,5.53
2022-10-13T05:06:02.777Z,6.00
2022-10-13T05:08:29.909Z,4.20
2022-10-13T05:10:58.799Z,4.83
2022-10-13T05:13:26.612Z,4.27
2022-10-13T05:15:53.774Z,3.90
2022-10-13T05:18:20.883Z,6.73
2022-10-13T05:20:47.954Z,4.30
2022-10-13T05:23:16.178Z,5.83
2022-10-13T05:25:43.372Z,7.90
2022-10-13T05:28:10.708Z,3.97
2022-10-13T05:30:37.849Z,4.77
2022-10-13T05:33:05.166Z,4.33
2022-10-13T05:35:32.286Z,4.00
2022-10-13T05:37:59.408Z,4.00
2022-10-13T05:40:26.592Z,7.20
2022-10-13T05:42:54.005Z,7.73
2022-10-13T05:45:23.205Z,4.17
2022-10-13T05:47:50.381Z,9.23
2022-10-13T05:50:17.838Z,5.27
2022-10-13T05:52:45.355Z,13.70
2022-10-13T05:55:17.365Z,7.60
2022-10-13T05:57:50.948Z,4.87
2022-10-13T06:00:19.755Z,6.17
2022-10-13T06:02:54.415Z,5.63
2022-10-13T06:05:24.721Z,5.57
2022-10-13T06:07:52.449Z,8.07
2022-10-13T06:10:19.622Z,4.10
2022-10-13T06:12:47.151Z,5.33
2022-10-13T06:15:14.335Z,5.47
2022-10-13T06:17:41.459Z,9.13
2022-10-13T06:20:09.792Z,6.20
2022-10-13T06:22:37.751Z,6.77
2022-10-13T06:25:06.998Z,6.30
2022-10-13T06:27:34.877Z,11.00
2022-10-13T06:30:02.453Z,6.33
2022-10-13T06:32:29.591Z,5.60
2022-10-13T06:34:56.735Z,13.00
2022-10-13T06:37:27.360Z,6.47
2022-10-13T06:39:54.948Z,6.53
2022-10-13T06:42:22.439Z,7.30
2022-10-13T06:44:52.681Z,7.27
2022-10-13T06:47:19.834Z,6.33
2022-10-13T06:49:46.886Z,6.93
2022-10-13T06:52:13.988Z,8.63
2022-10-13T06:54:41.045Z,6.57
2022-10-13T06:57:08.286Z,9.97
2022-10-13T06:59:35.393Z,9.83
2022-10-13T07:02:02.467Z,8.80
2022-10-13T07:04:29.728Z,9.17
2022-10-13T07:06:59.924Z,6.47
2022-10-13T07:09:27.413Z,10.67
2022-10-13T07:11:54.783Z,9.93
2022-10-13T07:14:21.913Z,11.07
2022-10-13T07:16:49.316Z,7.13
2022-10-13T07:19:16.463Z,12.00
2022-10-13T07:21:43.722Z,10.10
2022-10-13T07:24:12.015Z,8.83
2022-10-13T07:26:39.220Z,10.83
2022-10-13T07:29:06.303Z,10.10
2022-10-13T07:31:33.496Z,10.73
2022-10-13T07:34:01.085Z,8.50
2022-10-13T07:36:28.250Z,9.20
2022-10-13T07:38:55.371Z,7.07
2022-10-13T07:41:22.888Z,7.27
2022-10-13T07:43:54.039Z,13.23
2022-10-13T07:46:21.694Z,8.97
2022-10-13T07:48:48.843Z,11.10
2022-10-13T07:51:16.017Z,12.83
2022-10-13T07:53:43.438Z,10.10
2022-10-13T07:56:13.076Z,10.20
2022-10-13T07:58:42.947Z,8.30
2022-10-13T08:01:11.004Z,7.70
2022-10-13T08:03:40.141Z,9.07
2022-10-13T08:06:09.458Z,17.63
2022-10-13T08:08:36.941Z,14.23
2022-10-13T08:11:06.818Z,16.73
2022-10-13T08:13:34.411Z,11.77
2022-10-13T08:16:02.781Z,16.53
2022-10-13T08:18:30.571Z,8.00
2022-10-13T08:23:49.717Z,18.30
2022-10-13T08:26:23.910Z,9.87
2022-10-13T08:29:09.646Z,13.27
2022-10-13T08:31:39.075Z,21.77
2022-10-13T08:34:06.438Z,13.23
2022-10-13T08:36:33.560Z,14.03
2022-10-13T08:39:00.728Z,20.33
2022-10-13T08:41:36.081Z,29.33
2022-10-13T08:47:27.674Z,15.67
2022-10-13T08:50:01.481Z,18.87
2022-10-13T08:52:43.604Z,15.07
2022-10-13T08:55:25.585Z,19.50
2022-10-13T08:57:53.383Z,14.27
2022-10-13T09:00:21.073Z,22.77
2022-10-13T09:02:49.123Z,12.97
2022-10-13T09:05:41.501Z,17.83
2022-10-13T09:08:19.407Z,23.43
2022-10-13T09:10:51.176Z,18.63
2022-10-13T09:13:20.087Z,18.40
2022-10-13T09:15:50.563Z,21.90
2022-10-13T09:18:18.706Z,20.93
2022-10-13T09:20:45.898Z,22.33
2022-10-13T09:23:22.632Z,18.67
2022-10-13T09:25:52.284Z,15.67
2022-10-13T09:28:33.261Z,19.43
2022-10-13T09:31:18.943Z,20.63
2022-10-13T09:33:46.802Z,16.90
2022-10-13T09:36:15.668Z,18.90
2022-10-13T09:39:04.218Z,16.67
2022-10-13T09:41:31.932Z,16.10
2022-10-13T09:44:05.949Z,12.33
2022-10-13T09:46:37.893Z,19.27
2022-10-13T09:49:26.821Z,18.57
2022-10-13T09:52:01.301Z,26.33
2022-10-13T09:54:53.104Z,22.20
2022-10-13T09:57:31.950Z,20.30
2022-10-13T10:00:14.794Z,17.37
2022-10-13T10:03:06.695Z,23.53
2022-10-13T10:05:56.585Z,21.53
2022-10-13T10:09:01.698Z,18.07
2022-10-13T10:11:39.408Z,25.67
2022-10-13T10:14:26.427Z,25.70
2022-10-13T10:17:09.634Z,25.77
2022-10-13T10:20:01.541Z,21.40
2022-10-13T10:22:40.478Z,21.90
2022-10-13T10:25:26.019Z,18.57
2022-10-13T10:28:06.377Z,21.67
2022-10-13T10:30:41.573Z,25.87
2022-10-13T10:33:23.425Z,25.20
2022-10-13T10:36:04.804Z,22.50
2022-10-13T10:38:53.407Z,17.33
2022-10-13T10:41:44.750Z,22.33
2022-10-13T10:44:19.545Z,14.67
2022-10-13T10:46:49.421Z,30.50
2022-10-13T10:49:28.774Z,23.50
2022-10-13T10:51:56.400Z,19.30
2022-10-13T10:54:49.233Z,24.60
2022-10-13T10:57:38.757Z,19.97
2022-10-13T11:00:06.161Z,21.57
2022-10-13T11:02:51.888Z,20.67
2022-10-13T11:05:19.257Z,27.73
2022-10-13T11:07:46.698Z,24.23
2022-10-13T11:10:13.809Z,25.23
2022-10-13T11:12:53.073Z,23.93
2022-10-13T11:15:25.114Z,25.80
2022-10-13T11:17:52.514Z,26.13
2022-10-13T11:20:20.020Z,20.47
2022-10-13T11:22:59.082Z,20.47
2022-10-13T11:25:43.894Z,23.67
2022-10-13T11:28:23.275Z,27.70
2022-10-13T11:31:17.310Z,23.77
2022-10-13T11:33:45.789Z,35.30
2022-10-13T11:36:49.971Z,22.53
2022-10-13T11:39:28.880Z,25.97
2022-10-13T11:42:19.705Z,25.57
2022-10-13T11:45:26.895Z,34.10
2022-10-13T11:51:06.136Z,25.77
2022-10-13T11:53:41.975Z,25.03
2022-10-13T11:56:23.746Z,25.23
2022-10-13T11:58:50.883Z,28.00
2022-10-13T12:01:19.283Z,28.10
2022-10-13T12:03:47.875Z,29.63
2022-10-13T12:06:21.052Z,23.27
2022-10-13T12:08:50.052Z,26.40
2022-10-13T12:11:38.853Z,31.30
2022-10-13T12:14:26.157Z,28.63
2022-10-13T12:16:59.173Z,22.40
2022-10-13T12:19:28.968Z,20.20
2022-10-13T12:22:02.477Z,19.50
2022-10-13T12:24:32.694Z,17.57
2022-10-13T12:27:09.673Z,17.07
2022-10-13T12:29:40.677Z,16.40
2022-10-13T12:32:31.963Z,20.30
2022-10-13T12:35:18.103Z,17.83
2022-10-13T12:37:45.759Z,16.43
2022-10-13T12:40:30.993Z,20.00
2022-10-13T12:43:00.691Z,18.93
2022-10-13T12:45:33.116Z,19.33
2022-10-13T12:48:00.599Z,19.97
2022-10-13T12:50:28.212Z,16.67
2022-10-13T12:53:28.275Z,21.23
2022-10-13T12:55:59.278Z,21.60
2022-10-13T12:58:32.589Z,25.43
2022-10-13T13:01:15.239Z,19.10
2022-10-13T13:03:44.181Z,17.83
2022-10-13T13:06:11.336Z,22.50
2022-10-13T13:08:39.137Z,25.93
2022-10-13T13:11:19.671Z,18.20
2022-10-13T13:13:46.858Z,23.20
2022-10-13T13:16:20.230Z,19.67
2022-10-13T13:18:49.821Z,20.40
2022-10-13T13:21:19.216Z,21.47
2022-10-13T13:23:52.754Z,17.93
2022-10-13T13:26:24.595Z,20.60
2022-10-13T13:28:54.737Z,20.80
2022-10-13T13:31:24.222Z,21.40
2022-10-13T13:33:51.963Z,19.47
2022-10-13T13:36:23.748Z,24.60
2022-10-13T13:38:51.716Z,22.30
2022-10-13T13:41:19.510Z,22.50
2022-10-13T13:43:46.812Z,17.77
2022-10-13T13:46:22.498Z,18.13
2022-10-13T13:48:50.056Z,18.30
2022-10-13T13:51:17.851Z,27.60
2022-10-13T13:53:45.282Z,21.00
2022-10-13T13:56:14.662Z,22.87
2022-10-13T13:58:42.052Z,21.07
2022-10-13T14:01:10.042Z,23.23
2022-10-13T14:03:37.530Z,24.53
2022-10-13T14:06:04.993Z,20.23
2022-10-13T14:08:33.247Z,24.70
2022-10-13T14:11:00.554Z,19.43
2022-10-13T14:13:27.653Z,30.63
2022-10-13T14:15:59.098Z,29.93
2022-10-13T14:18:26.390Z,23.23
2022-10-13T14:20:53.497Z,26.07
2022-10-13T14:23:20.636Z,22.47
2022-10-13T14:25:47.778Z,39.57
2022-10-13T14:28:18.289Z,35.10
2022-10-13T14:30:45.772Z,25.43
2022-10-13T14:33:12.941Z,40.47
2022-10-13T14:35:40.299Z,42.07
2022-10-13T14:38:07.398Z,46.50
2022-10-13T14:40:34.639Z,46.53
2022-10-13T14:43:01.708Z,46.30
2022-10-13T14:45:28.839Z,42.53
2022-10-13T14:47:55.943Z,41.60
2022-10-13T14:50:23.087Z,49.33
2022-10-13T14:52:50.308Z,45.40
2022-10-13T14:55:17.485Z,31.43
2022-10-13T14:57:44.577Z,35.57
2022-10-13T15:00:12.194Z,49.53
2022-10-13T15:02:39.626Z,35.20
2022-10-13T15:05:07.235Z,39.47
2022-10-13T15:07:36.838Z,41.30
2022-10-13T15:10:08.081Z,35.40
2022-10-13T15:12:35.288Z,30.17
2022-10-13T15:15:02.628Z,31.53
2022-10-13T15:17:30.963Z,29.67
2022-10-13T15:19:58.253Z,34.23
2022-10-13T15:22:25.617Z,34.83
2022-10-13T15:24:52.807Z,41.60
2022-10-13T15:27:19.869Z,36.30
2022-10-13T15:29:47.004Z,35.87
2022-10-13T15:32:20.740Z,41.93
2022-10-13T15:34:48.169Z,39.43
2022-10-13T15:37:15.376Z,39.60
2022-10-13T15:39:42.640Z,45.77
2022-10-13T15:42:11.776Z,44.77
2022-10-13T15:47:26.171Z,49.30
2022-10-13T15:49:53.356Z,47.87
2022-10-13T15:52:24.069Z,43.47
2022-10-13T15:54:51.635Z,45.20
2022-10-13T15:57:18.993Z,49.50
2022-10-13T15:59:46.101Z,49.67
2022-10-13T16:02:13.236Z,43.87
2022-10-13T16:04:40.417Z,53.50
2022-10-13T16:07:07.485Z,57.50
2022-10-13T16:09:34.585Z,50.83
2022-10-13T16:12:02.025Z,45.37
2022-10-13T16:14:29.202Z,47.20
2022-10-13T16:16:58.762Z,47.03
2022-10-13T16:19:25.942Z,59.43
2022-10-13T16:21:53.098Z,38.70
2022-10-13T16:24:23.175Z,54.67
2022-10-13T16:26:50.342Z,44.23
2022-10-13T16:29:17.594Z,44.07
2022-10-13T16:31:45.192Z,46.80
2022-10-13T16:34:12.326Z,43.57
2022-10-13T16:36:39.454Z,45.93
2022-10-13T16:39:06.605Z,51.90
2022-10-13T16:41:33.756Z,57.17
2022-10-13T16:44:00.939Z,48.50
2022-10-13T16:46:28.083Z,49.43
2022-10-13T16:48:55.247Z,43.00
2022-10-13T16:51:25.038Z,54.17
2022-10-13T16:54:01.327Z,49.53
2022-10-13T16:56:31.874Z,46.90
2022-10-13T16:59:01.486Z,58.80
2022-10-13T17:01:28.934Z,42.20
2022-10-13T17:03:56.505Z,53.00
2022-10-13T17:06:25.661Z,50.60
2022-10-13T17:08:52.853Z,48.17
2022-10-13T17:11:27.035Z,39.43
2022-10-13T17:13:56.093Z,47.13
2022-10-13T17:16:23.215Z,36.23
2022-10-13T17:18:54.297Z,48.47
2022-10-13T17:21:22.291Z,52.20
2022-10-13T17:23:49.921Z,33.97
2022-10-13T17:26:18.446Z,78.80
2022-10-13T17:28:46.166Z,69.77
2022-10-13T17:31:17.427Z,73.30
2022-10-13T17:33:48.671Z,62.57
2022-10-13T17:36:19.402Z,53.80
2022-10-13T17:38:48.096Z,54.00
2022-10-13T17:41:17.609Z,54.70
2022-10-13T17:43:44.765Z,53.17
2022-10-13T17:46:35.060Z,53.30
2022-10-13T17:49:01.193Z,49.53
2022-10-13T17:51:28.389Z,46.50
2022-10-13T17:53:58.271Z,43.17
2022-10-13T17:56:26.081Z,53.03
2022-10-13T17:58:53.630Z,42.83
2022-10-13T18:01:23.828Z,49.13
2022-10-13T18:03:56.857Z,41.30
2022-10-13T18:06:24.710Z,42.20
2022-10-13T18:08:52.185Z,43.03
2022-10-13T18:11:21.748Z,42.07
2022-10-13T18:13:49.498Z,47.67
2022-10-13T18:16:22.254Z,43.53
2022-10-13T18:18:50.349Z,36.57
2022-10-13T18:21:23.383Z,38.47
2022-10-13T18:23:50.572Z,38.67
2022-10-13T18:26:19.665Z,42.03
2022-10-13T18:28:49.065Z,36.67
2022-10-13T18:31:19.140Z,45.43
2022-10-13T18:33:47.263Z,34.00
2022-10-13T18:36:26.377Z,47.00
2022-10-13T18:38:55.184Z,44.67
2022-10-13T18:41:24.454Z,43.17
2022-10-13T18:43:51.804Z,39.20
2022-10-13T18:46:19.284Z,41.17
2022-10-13T18:48:46.554Z,39.53
2022-10-13T18:51:16.115Z,37.93
2022-10-13T18:53:46.031Z,35.20
2022-10-13T18:56:17.028Z,38.97
2022-10-13T18:58:44.233Z,41.90
2022-10-13T19:01:14.959Z,37.90
2022-10-13T19:03:42.915Z,38.80
2022-10-13T19:06:12.323Z,40.87
2022-10-13T19:08:39.643Z,48.67
2022-10-13T19:11:21.285Z,37.70
2022-10-13T19:13:49.140Z,42.00
2022-10-13T19:16:19.620Z,40.10
2022-10-13T19:18:47.450Z,41.50
2022-10-13T19:21:15.132Z,34.60
2022-10-13T19:23:45.342Z,43.10
2022-10-13T19:26:24.537Z,35.70
2022-10-13T19:28:57.630Z,33.20
2022-10-13T19:31:27.193Z,35.50
2022-10-13T19:33:54.633Z,34.10
2022-10-13T19:36:30.385Z,33.70
2022-10-13T19:38:58.577Z,42.67
2022-10-13T19:41:28.616Z,34.77
2022-10-13T19:44:04.689Z,38.87
2022-10-13T19:46:32.961Z,39.93
2022-10-13T19:49:00.614Z,32.47
2022-10-13T19:51:27.776Z,32.63
2022-10-13T19:53:54.960Z,39.10
2022-10-13T19:56:28.742Z,35.20
2022-10-13T19:58:55.928Z,39.77
2022-10-13T20:01:23.646Z,31.97
2022-10-13T20:03:51.623Z,36.97
2022-10-13T20:06:20.002Z,36.80
2022-10-13T20:08:48.006Z,34.60
2022-10-13T20:11:23.473Z,36.40
2022-10-13T20:13:52.658Z,40.37
2022-10-13T20:16:23.302Z,34.47
2022-10-13T20:18:55.743Z,29.90
2022-10-13T20:21:23.440Z,35.43
2022-10-13T20:23:50.955Z,33.87
2022-10-13T20:26:19.151Z,37.37
2022-10-13T20:28:48.523Z,35.70
2022-10-13T20:31:18.876Z,35.80
2022-10-13T20:33:47.194Z,37.53
2022-10-13T20:36:16.765Z,30.83
2022-10-13T20:38:43.883Z,36.00
2022-10-13T20:41:24.739Z,28.80
2022-10-13T20:43:53.434Z,38.80
2022-10-13T20:46:21.901Z,37.03
2022-10-13T20:51:36.944Z,36.60
2022-10-13T20:54:04.263Z,33.10
2022-10-13T20:56:31.403Z,38.47
2022-10-13T20:59:03.639Z,37.27
2022-10-13T21:01:30.970Z,40.23
2022-10-13T21:03:58.530Z,32.33
2022-10-13T21:06:26.190Z,31.20
2022-10-13T21:08:54.112Z,30.60
2022-10-13T21:11:23.288Z,30.43
2022-10-13T21:13:51.250Z,35.97
2022-10-13T21:16:29.700Z,30.67
2022-10-13T21:18:57.846Z,31.80
2022-10-13T21:21:29.940Z,30.53
2022-10-13T21:23:59.777Z,29.20
2022-10-13T21:26:29.117Z,30.80
2022-10-13T21:28:56.889Z,30.37
2022-10-13T21:31:24.864Z,31.50
2022-10-13T21:33:52.333Z,33.70
2022-10-13T21:36:31.039Z,31.73
2022-10-13T21:39:03.888Z,29.57
2022-10-13T21:41:31.764Z,39.30
2022-10-13T21:43:59.220Z,35.47
2022-10-13T21:46:29.159Z,36.97
2022-10-13T21:48:59.304Z,32.53
2022-10-13T21:51:34.877Z,31.33
2022-10-13T21:54:04.656Z,31.63
2022-10-13T21:56:33.345Z,31.17
2022-10-13T21:59:01.203Z,28.30
2022-10-13T22:01:28.848Z,36.43
2022-10-13T22:03:57.623Z,26.63
2022-10-13T22:06:25.556Z,38.40
2022-10-13T22:08:54.179Z,39.40
2022-10-13T22:11:23.295Z,33.87
2022-10-13T22:13:50.883Z,32.10
2022-10-13T22:16:23.395Z,30.50
2022-10-13T22:18:55.175Z,34.30
2022-10-13T22:21:26.864Z,27.57
2022-10-13T22:23:57.516Z,28.83
2022-10-13T22:26:25.460Z,35.00
2022-10-13T22:28:53.063Z,32.73
2022-10-13T22:31:20.385Z,33.70
2022-10-13T22:33:47.907Z,30.60
2022-10-13T22:36:17.516Z,30.10
2022-10-13T22:38:46.069Z,29.17
2022-10-13T22:41:14.819Z,27.60
2022-10-13T22:43:46.742Z,32.47
2022-10-13T22:46:19.474Z,34.40
2022-10-13T22:48:47.285Z,29.77
2022-10-13T22:51:18.498Z,26.57
2022-10-13T22:53:46.303Z,40.53
2022-10-13T22:56:16.797Z,27.60
2022-10-13T22:58:44.246Z,25.97
2022-10-13T23:01:14.217Z,30.33
2022-10-13T23:03:41.891Z,26.30
2022-10-13T23:06:14.231Z,26.97
2022-10-13T23:08:42.084Z,25.70
2022-10-13T23:11:10.242Z,24.97
2022-10-13T23:13:37.716Z,25.93
2022-10-13T23:16:17.705Z,24.90
2022-10-13T23:18:45.043Z,25.80
2022-10-13T23:21:15.031Z,23.33
2022-10-13T23:23:42.628Z,26.70
2022-10-13T23:26:12.810Z,21.60
2022-10-13T23:28:40.388Z,26.10
2022-10-13T23:31:10.854Z,28.47
2022-10-13T23:33:38.253Z,27.90
2022-10-13T23:36:06.377Z,21.87
2022-10-13T23:38:34.256Z,21.40
2022-10-13T23:41:10.942Z,26.53
2022-10-13T23:43:38.460Z,22.70
2022-10-13T23:46:05.833Z,27.27
2022-10-13T23:48:33.075Z,23.00
2022-10-13T23:51:07.176Z,25.67
2022-10-13T23:53:35.973Z,22.80
2022-10-13T23:56:05.415Z,20.97
2022-10-13T23:58:33.320Z,20.53
